Time;durP1;ratioP1;P1;durP2;ratioP2;P2;SDS_P1;SDS_P2;PMS_P1;PMS_P2;Temp;Humidity;BMP_temperature;BMP_pressure;BME280_temperature;BME280_humidity;BME280_pressure;Samples;Min_cycle;Max_cycle;Signal;HPM_P1;HPM_P2
2021/05/14 00:00:52;;;;;;;27.15;17.08;;;14.70;58.40;;;;;;5053448;28;20548;-63
2021/05/14 00:03:18;;;;;;;29.35;17.67;;;14.70;58.40;;;;;;5052830;28;20043;-63
2021/05/14 00:05:48;;;;;;;28.02;17.83;;;14.70;58.40;;;;;;5046717;28;20087;-63
2021/05/14 00:08:14;;;;;;;29.38;17.70;;;14.70;58.50;;;;;;5051053;28;20449;-62
2021/05/14 00:10:40;;;;;;;30.10;17.05;;;14.70;58.40;;;;;;5049042;28;20032;-63
2021/05/14 00:13:07;;;;;;;29.40;17.58;;;14.70;58.60;;;;;;5054389;28;20589;-63
2021/05/14 00:15:32;;;;;;;28.48;17.80;;;14.60;58.50;;;;;;5041035;28;20028;-63
2021/05/14 00:17:58;;;;;;;30.27;18.25;;;14.60;58.50;;;;;;5052389;28;20081;-63
2021/05/14 00:20:24;;;;;;;33.50;18.77;;;14.60;58.60;;;;;;5045713;28;20044;-62
2021/05/14 00:22:53;;;;;;;35.00;19.13;;;14.60;58.60;;;;;;5044013;28;20644;-63
2021/05/14 00:25:22;;;;;;;37.40;21.13;;;14.60;58.20;;;;;;5054483;28;20467;-63
2021/05/14 00:27:47;;;;;;;34.53;20.38;;;14.60;58.70;;;;;;5055537;28;20055;-63
2021/05/14 00:30:16;;;;;;;39.13;19.92;;;14.60;58.60;;;;;;5047836;28;20985;-63
2021/05/14 00:32:44;;;;;;;38.28;22.15;;;14.60;58.70;;;;;;5051551;28;20441;-62
2021/05/14 00:35:10;;;;;;;38.55;21.85;;;14.60;58.70;;;;;;5056986;28;20447;-63
2021/05/14 00:37:35;;;;;;;37.08;22.13;;;14.50;58.70;;;;;;5058222;28;20038;-64
2021/05/14 00:40:01;;;;;;;41.35;21.65;;;14.50;58.70;;;;;;5058770;28;20493;-62
2021/05/14 00:42:27;;;;;;;44.30;21.83;;;14.50;58.80;;;;;;5072295;28;20047;-63
2021/05/14 00:44:53;;;;;;;48.30;21.25;;;14.50;58.90;;;;;;5073868;28;20040;-63
2021/05/14 00:47:22;;;;;;;36.67;20.67;;;14.50;58.90;;;;;;5064394;28;20059;-63
2021/05/14 00:49:48;;;;;;;35.25;18.65;;;14.60;58.90;;;;;;5060303;28;20456;-64
2021/05/14 00:52:17;;;;;;;34.97;18.60;;;14.50;58.80;;;;;;5062168;28;20086;-63
2021/05/14 00:54:44;;;;;;;32.53;17.42;;;14.50;58.80;;;;;;5053149;28;20570;-63
2021/05/14 00:57:12;;;;;;;38.67;18.63;;;14.50;58.90;;;;;;5064449;28;20287;-62
2021/05/14 00:59:38;;;;;;;34.75;18.42;;;14.50;58.90;;;;;;5060539;28;22632;-63
2021/05/14 01:02:06;;;;;;;34.38;18.27;;;14.40;58.90;;;;;;5065678;28;20279;-63
2021/05/14 01:04:34;;;;;;;34.85;18.10;;;14.40;59.10;;;;;;5069411;28;20041;-62
2021/05/14 01:07:00;;;;;;;33.50;16.75;;;14.40;59.20;;;;;;5061549;28;20452;-63
2021/05/14 01:09:26;;;;;;;26.77;14.85;;;14.50;59.20;;;;;;5053254;28;20159;-63
2021/05/14 01:11:52;;;;;;;26.27;14.48;;;14.50;59.20;;;;;;5059050;28;20254;-62
2021/05/14 01:14:18;;;;;;;21.90;12.52;;;14.40;59.10;;;;;;5058781;28;20028;-62
2021/05/14 01:16:48;;;;;;;22.77;13.07;;;14.40;59.10;;;;;;5061602;28;20174;-61
2021/05/14 01:19:14;;;;;;;26.23;13.05;;;14.40;59.00;;;;;;5056892;28;20555;-63
2021/05/14 01:21:39;;;;;;;28.13;13.85;;;14.30;58.90;;;;;;5064258;28;20036;-62
2021/05/14 01:24:06;;;;;;;25.75;13.13;;;14.30;59.00;;;;;;5062774;28;20089;-63
2021/05/14 01:26:32;;;;;;;24.38;13.88;;;14.30;59.10;;;;;;5058599;28;20028;-62
2021/05/14 01:28:59;;;;;;;30.83;13.90;;;14.20;59.20;;;;;;5057879;28;20036;-64
2021/05/14 01:31:27;;;;;;;28.50;13.20;;;14.30;59.30;;;;;;5061440;28;20043;-63
2021/05/14 01:33:53;;;;;;;26.15;12.23;;;14.30;59.30;;;;;;5065263;28;20143;-62
2021/05/14 01:36:21;;;;;;;28.25;12.80;;;14.30;59.30;;;;;;5064990;28;20036;-63
2021/05/14 01:38:49;;;;;;;24.90;13.38;;;14.30;59.30;;;;;;5065301;28;20058;-63
2021/05/14 01:41:15;;;;;;;24.95;13.27;;;14.20;59.40;;;;;;5066471;28;20048;-63
2021/05/14 01:43:41;;;;;;;23.27;12.00;;;14.20;59.40;;;;;;5059181;28;20068;-63
2021/05/14 01:46:07;;;;;;;25.92;12.95;;;14.20;59.50;;;;;;5065820;28;20036;-63
2021/05/14 01:48:33;;;;;;;23.10;12.30;;;14.20;59.40;;;;;;5057577;28;20204;-63
2021/05/14 01:51:06;;;;;;;25.05;12.82;;;14.20;59.40;;;;;;5063330;28;20036;-63
2021/05/14 01:53:34;;;;;;;24.05;12.77;;;14.20;59.60;;;;;;5063061;28;20060;-62
2021/05/14 01:55:59;;;;;;;24.50;13.32;;;14.20;59.60;;;;;;5058021;28;20040;-62
2021/05/14 01:58:25;;;;;;;30.88;14.80;;;14.20;59.60;;;;;;5051829;28;20043;-63
2021/05/14 02:00:51;;;;;;;25.85;13.50;;;14.20;59.60;;;;;;5053560;28;20169;-63
2021/05/14 02:03:20;;;;;;;29.25;14.85;;;14.20;59.60;;;;;;5058886;28;20046;-63
2021/05/14 02:05:46;;;;;;;29.42;14.30;;;14.20;59.70;;;;;;5061242;28;20082;-63
2021/05/14 02:08:11;;;;;;;30.15;14.30;;;14.20;59.80;;;;;;5060110;28;20036;-63
2021/05/14 02:10:37;;;;;;;32.03;14.35;;;14.20;59.80;;;;;;5056907;28;20059;-63
2021/05/14 02:13:02;;;;;;;33.28;15.23;;;14.20;59.90;;;;;;5058682;28;20059;-63
2021/05/14 02:15:28;;;;;;;31.83;14.05;;;14.20;59.90;;;;;;5052761;28;20039;-63
2021/05/14 02:17:56;;;;;;;25.08;14.02;;;14.20;59.90;;;;;;5063887;28;20040;-63
2021/05/14 02:20:21;;;;;;;28.02;13.57;;;14.20;59.90;;;;;;5052177;28;20039;-62
2021/05/14 02:22:47;;;;;;;26.67;13.68;;;14.20;60.00;;;;;;5036197;28;20314;-63
2021/05/14 02:25:12;;;;;;;25.27;14.43;;;14.20;59.90;;;;;;5062609;28;20075;-62
2021/05/14 02:27:38;;;;;;;30.83;14.38;;;14.20;59.90;;;;;;5062011;28;20043;-62
2021/05/14 02:30:05;;;;;;;34.47;15.02;;;14.20;59.90;;;;;;5054939;28;20067;-62
2021/05/14 02:32:31;;;;;;;31.17;13.85;;;14.20;59.90;;;;;;5065438;28;20504;-62
2021/05/14 02:34:56;;;;;;;28.70;13.52;;;14.20;59.80;;;;;;5073649;28;20044;-62
2021/05/14 02:37:22;;;;;;;36.30;14.20;;;14.20;59.80;;;;;;5073884;28;20036;-63
2021/05/14 02:39:48;;;;;;;28.05;13.90;;;14.20;59.70;;;;;;5063799;28;20038;-63
2021/05/14 02:42:14;;;;;;;32.55;13.27;;;14.20;59.70;;;;;;5054611;28;20097;-63
2021/05/14 02:44:39;;;;;;;25.35;12.00;;;14.20;59.70;;;;;;5068223;28;20113;-63
2021/05/14 02:47:05;;;;;;;25.73;11.77;;;14.20;59.60;;;;;;5069477;28;20060;-63
2021/05/14 02:49:32;;;;;;;25.15;12.07;;;14.20;59.50;;;;;;5052654;28;20063;-64
2021/05/14 02:51:58;;;;;;;20.95;11.63;;;14.20;59.30;;;;;;5060296;28;20035;-62
2021/05/14 02:54:26;;;;;;;20.38;11.10;;;14.10;59.30;;;;;;5059886;28;20037;-63
2021/05/14 02:56:52;;;;;;;16.88;10.38;;;14.10;59.20;;;;;;5060709;28;20032;-63
2021/05/14 02:59:21;;;;;;;19.77;9.77;;;14.00;59.20;;;;;;5046423;28;20506;-63
2021/05/14 03:01:51;;;;;;;19.70;10.70;;;14.00;59.30;;;;;;5058842;28;20028;-63
2021/05/14 03:04:18;;;;;;;18.33;9.63;;;14.00;59.30;;;;;;5060018;28;20126;-63
2021/05/14 03:06:45;;;;;;;16.75;9.50;;;14.00;59.20;;;;;;5065315;28;20042;-63
2021/05/14 03:09:12;;;;;;;16.42;9.65;;;14.00;59.10;;;;;;5058032;28;20490;-63
2021/05/14 03:11:43;;;;;;;15.88;10.00;;;14.00;58.90;;;;;;5063789;28;20044;-63
2021/05/14 03:14:09;;;;;;;18.42;9.55;;;14.00;59.50;;;;;;5069710;28;20732;-62
2021/05/14 03:16:35;;;;;;;15.00;9.23;;;14.00;58.80;;;;;;5070067;28;20158;-63
2021/05/14 03:19:03;;;;;;;15.90;8.93;;;14.00;58.70;;;;;;5059062;28;20044;-63
2021/05/14 03:21:30;;;;;;;17.00;8.98;;;14.00;58.70;;;;;;5063726;28;20044;-63
2021/05/14 03:23:59;;;;;;;16.10;8.68;;;13.90;58.50;;;;;;5066497;28;20119;-62
2021/05/14 03:26:25;;;;;;;14.30;7.95;;;13.90;58.50;;;;;;5071234;28;20036;-62
2021/05/14 03:28:51;;;;;;;16.77;9.75;;;13.90;58.60;;;;;;5055742;28;20123;-63
2021/05/14 03:31:17;;;;;;;20.38;10.52;;;13.90;58.60;;;;;;5066129;28;20044;-63
2021/05/14 03:33:45;;;;;;;24.90;10.15;;;13.90;58.50;;;;;;5065590;28;20044;-63
2021/05/14 03:36:13;;;;;;;20.35;10.05;;;13.80;58.40;;;;;;5070604;28;20063;-63
2021/05/14 03:38:40;;;;;;;24.20;9.50;;;13.90;58.30;;;;;;5072165;28;20047;-63
2021/05/14 03:43:50;;;;;;;18.25;9.75;;;13.80;58.20;;;;;;5059113;28;20101;-64
2021/05/14 03:46:16;;;;;;;19.10;9.70;;;13.70;58.20;;;;;;5067661;28;20413;-62
2021/05/14 03:48:41;;;;;;;20.23;9.00;;;13.70;58.20;;;;;;5065780;28;20882;-63
2021/05/14 03:51:10;;;;;;;17.63;10.00;;;13.70;58.20;;;;;;5059100;28;20450;-62
2021/05/14 03:53:35;;;;;;;26.38;11.15;;;13.70;58.30;;;;;;5044798;28;20041;-63
2021/05/14 03:56:05;;;;;;;21.95;10.52;;;13.60;58.40;;;;;;5064068;28;20135;-63
2021/05/14 03:58:31;;;;;;;23.27;10.68;;;13.60;58.40;;;;;;5059994;28;20145;-63
2021/05/14 04:00:56;;;;;;;26.08;11.05;;;13.60;58.50;;;;;;5060284;28;20647;-62
2021/05/14 04:03:22;;;;;;;23.60;10.80;;;13.60;58.50;;;;;;5056363;28;20037;-63
2021/05/14 04:05:49;;;;;;;19.33;10.50;;;13.60;58.60;;;;;;5062357;28;20032;-62
2021/05/14 04:08:15;;;;;;;16.88;9.88;;;13.50;58.50;;;;;;5059839;28;20036;-62
2021/05/14 04:10:51;;;;;;;18.35;10.32;;;13.60;58.60;;;;;;5060925;28;20113;-63
2021/05/14 04:16:07;;;;;;;22.77;11.02;;;13.60;58.60;;;;;;5069917;28;20105;-63
2021/05/14 04:18:36;;;;;;;22.98;10.73;;;13.60;58.60;;;;;;5052042;28;20493;-63
2021/05/14 04:21:03;;;;;;;17.95;10.27;;;13.60;58.70;;;;;;5069416;28;20087;-63
2021/05/14 04:23:28;;;;;;;19.35;10.18;;;13.60;59.30;;;;;;5065262;28;20037;-63
2021/05/14 04:25:55;;;;;;;18.80;10.38;;;13.60;58.80;;;;;;5067633;28;20032;-63
2021/05/14 04:28:22;;;;;;;18.73;10.35;;;13.60;58.80;;;;;;5062319;28;20498;-62
2021/05/14 04:30:48;;;;;;;20.92;10.60;;;13.70;58.80;;;;;;5052176;28;20032;-62
2021/05/14 04:33:16;;;;;;;22.35;10.63;;;13.70;58.80;;;;;;5069850;28;20047;-63
2021/05/14 04:35:41;;;;;;;21.52;10.32;;;13.80;58.80;;;;;;5065464;28;20089;-62
2021/05/14 04:38:07;;;;;;;24.80;10.32;;;13.80;58.70;;;;;;5065486;28;21436;-62
2021/05/14 04:40:34;;;;;;;24.30;9.90;;;13.90;58.60;;;;;;5056463;28;20848;-63
2021/05/14 04:43:04;;;;;;;19.40;9.73;;;13.90;58.60;;;;;;5062435;28;20040;-63
2021/05/14 04:45:30;;;;;;;19.10;9.43;;;13.90;58.60;;;;;;5062522;28;20166;-63
2021/05/14 04:47:57;;;;;;;22.10;8.77;;;14.00;58.40;;;;;;5068469;28;20043;-63
2021/05/14 04:50:23;;;;;;;23.40;9.00;;;14.00;58.40;;;;;;5062868;28;20469;-63
2021/05/14 04:52:49;;;;;;;17.17;8.75;;;14.10;58.40;;;;;;5063400;28;20131;-63
2021/05/14 04:55:19;;;;;;;18.35;8.35;;;14.20;58.30;;;;;;5061309;28;20032;-63
2021/05/14 04:57:45;;;;;;;16.90;8.85;;;14.20;58.20;;;;;;5065979;28;20112;-63
2021/05/14 05:00:11;;;;;;;21.88;8.95;;;14.30;58.10;;;;;;5062820;28;20719;-63
2021/05/14 05:02:37;;;;;;;17.77;8.82;;;14.30;58.00;;;;;;5069066;28;20436;-63
2021/05/14 05:05:02;;;;;;;20.10;9.25;;;14.40;58.10;;;;;;5060140;28;20044;-63
2021/05/14 05:07:30;;;;;;;24.23;8.75;;;14.40;57.90;;;;;;5065053;28;20184;-62
2021/05/14 05:09:56;;;;;;;27.10;8.77;;;14.50;57.80;;;;;;5070811;28;20028;-63
2021/05/14 05:12:24;;;;;;;18.80;9.00;;;14.50;57.70;;;;;;5072385;28;20020;-62
2021/05/14 05:14:50;;;;;;;19.38;8.30;;;14.60;57.50;;;;;;5070741;28;20061;-62
2021/05/14 05:17:15;;;;;;;18.65;8.55;;;14.60;57.20;;;;;;5057003;28;20032;-63
2021/05/14 05:19:44;;;;;;;20.67;9.40;;;14.60;57.20;;;;;;5051349;28;20139;-62
2021/05/14 05:22:09;;;;;;;18.73;8.40;;;14.70;57.30;;;;;;5067058;28;20574;-63
2021/05/14 05:24:35;;;;;;;20.45;9.40;;;14.70;57.20;;;;;;5063969;28;20046;-63
2021/05/14 05:27:00;;;;;;;19.83;8.25;;;14.80;57.10;;;;;;5068152;28;20044;-63
2021/05/14 05:29:27;;;;;;;16.83;7.97;;;14.90;56.80;;;;;;5059013;28;20032;-63
2021/05/14 05:31:55;;;;;;;19.90;7.45;;;15.00;56.80;;;;;;5063526;28;20149;-62
2021/05/14 05:34:24;;;;;;;15.55;7.80;;;15.00;56.60;;;;;;5069428;28;20036;-63
2021/05/14 05:36:52;;;;;;;21.85;8.43;;;15.10;56.50;;;;;;5067657;28;20119;-63
2021/05/14 05:39:17;;;;;;;16.88;7.57;;;15.10;56.40;;;;;;5062652;28;20051;-63
2021/05/14 05:41:43;;;;;;;22.05;7.43;;;15.20;56.30;;;;;;5067991;28;20409;-63
2021/05/14 05:44:08;;;;;;;19.30;7.47;;;15.20;56.00;;;;;;5045527;28;20032;-63
2021/05/14 05:46:34;;;;;;;18.70;7.60;;;15.20;56.00;;;;;;5065932;28;20963;-62
2021/05/14 05:48:59;;;;;;;16.80;7.00;;;15.20;55.80;;;;;;5060274;28;20494;-63
2021/05/14 05:51:29;;;;;;;18.85;7.35;;;15.10;55.80;;;;;;5061165;28;20079;-63
2021/05/14 05:53:55;;;;;;;23.13;7.03;;;15.10;55.90;;;;;;5067068;28;20032;-62
2021/05/14 05:56:23;;;;;;;22.23;7.38;;;15.10;55.80;;;;;;5066731;28;20109;-63
2021/05/14 05:58:48;;;;;;;25.92;7.32;;;15.10;55.80;;;;;;5060117;28;20059;-62
2021/05/14 06:01:16;;;;;;;26.50;7.30;;;15.20;55.80;;;;;;5067575;28;20185;-63
2021/05/14 06:03:42;;;;;;;20.15;7.10;;;15.10;55.60;;;;;;5066223;28;20082;-63
2021/05/14 06:06:10;;;;;;;17.95;7.10;;;15.10;55.60;;;;;;5058940;28;20040;-63
2021/05/14 06:08:38;;;;;;;21.80;6.63;;;15.10;55.70;;;;;;5058672;28;20051;-63
2021/05/14 06:11:04;;;;;;;23.63;7.40;;;15.10;55.90;;;;;;5068432;28;20032;-63
2021/05/14 06:13:31;;;;;;;32.58;8.48;;;15.20;55.80;;;;;;5073748;28;20032;-62
2021/05/14 06:16:01;;;;;;;18.30;6.95;;;15.20;55.50;;;;;;5072686;28;20040;-64
2021/05/14 06:18:30;;;;;;;21.77;6.90;;;15.20;55.50;;;;;;5067901;28;20028;-63
2021/05/14 06:20:58;;;;;;;19.13;7.30;;;15.20;55.50;;;;;;5069845;28;20054;-63
2021/05/14 06:23:26;;;;;;;21.88;7.13;;;15.30;55.60;;;;;;5079324;28;20036;-63
2021/05/14 06:25:59;;;;;;;23.45;6.70;;;15.30;55.60;;;;;;5069849;28;20107;-63
2021/05/14 06:28:27;;;;;;;20.95;6.38;;;15.30;55.40;;;;;;5068598;28;20513;-63
2021/05/14 06:30:53;;;;;;;25.15;7.53;;;15.40;55.50;;;;;;5062700;28;20127;-63
2021/05/14 06:33:21;;;;;;;22.50;7.55;;;15.40;55.60;;;;;;5064761;28;20468;-63
2021/05/14 06:35:48;;;;;;;28.20;6.93;;;15.40;55.50;;;;;;5067056;28;20169;-63
2021/05/14 06:38:14;;;;;;;20.08;6.43;;;15.50;55.40;;;;;;5066030;28;20144;-63
2021/05/14 06:40:42;;;;;;;14.65;6.80;;;15.60;55.30;;;;;;5070598;28;20482;-62
2021/05/14 06:43:08;;;;;;;22.63;6.97;;;15.60;55.10;;;;;;5069966;28;20075;-63
2021/05/14 06:45:33;;;;;;;27.25;7.68;;;15.60;54.90;;;;;;5071837;28;20055;-63
2021/05/14 06:48:04;;;;;;;21.40;6.57;;;15.60;54.70;;;;;;5071093;28;20070;-64
2021/05/14 06:50:33;;;;;;;16.73;6.28;;;15.60;54.70;;;;;;5074709;28;20124;-63
2021/05/14 06:53:00;;;;;;;20.05;6.65;;;15.70;54.60;;;;;;5075128;28;20183;-63
2021/05/14 06:55:26;;;;;;;27.63;7.13;;;15.70;54.50;;;;;;5075335;28;20171;-62
2021/05/14 06:57:51;;;;;;;15.27;6.30;;;15.70;54.30;;;;;;5071847;28;20040;-63
2021/05/14 07:00:18;;;;;;;15.77;5.68;;;15.70;54.40;;;;;;5052019;28;20535;-63
2021/05/14 07:02:47;;;;;;;18.67;5.93;;;15.80;54.40;;;;;;5067754;28;20048;-63
2021/05/14 07:05:14;;;;;;;19.08;6.15;;;15.90;54.70;;;;;;5071400;28;20113;-63
2021/05/14 07:07:40;;;;;;;16.52;5.63;;;15.90;55.10;;;;;;5069208;28;20028;-64
2021/05/14 07:10:10;;;;;;;18.75;6.38;;;16.00;54.30;;;;;;5070677;28;20127;-63
2021/05/14 07:12:36;;;;;;;14.68;6.13;;;16.00;54.00;;;;;;5064049;28;20126;-63
2021/05/14 07:15:06;;;;;;;14.40;5.80;;;16.10;54.00;;;;;;5069647;28;20155;-63
2021/05/14 07:17:32;;;;;;;12.10;4.53;;;16.10;54.00;;;;;;5071871;28;20085;-63
2021/05/14 07:19:58;;;;;;;16.10;5.47;;;16.20;53.40;;;;;;5071504;28;20666;-64
2021/05/14 07:22:26;;;;;;;17.98;5.32;;;16.30;53.30;;;;;;5063767;28;20028;-63
2021/05/14 07:24:54;;;;;;;19.58;5.20;;;16.40;53.30;;;;;;5067562;28;20043;-62
2021/05/14 07:27:20;;;;;;;13.88;4.60;;;16.40;53.10;;;;;;5054266;28;20032;-63
2021/05/14 07:29:45;;;;;;;16.85;5.15;;;16.50;53.00;;;;;;5071432;28;20032;-62
2021/05/14 07:32:12;;;;;;;14.98;5.05;;;16.70;53.10;;;;;;5058117;28;20144;-63
2021/05/14 07:34:39;;;;;;;18.52;4.30;;;16.80;52.90;;;;;;5070726;28;20028;-63
2021/05/14 07:37:07;;;;;;;22.25;5.45;;;16.90;52.30;;;;;;5064986;28;20127;-63
2021/05/14 07:39:36;;;;;;;19.17;5.20;;;17.00;51.90;;;;;;5052825;28;20475;-63
2021/05/14 07:42:03;;;;;;;16.80;4.72;;;17.00;52.00;;;;;;5063213;28;20470;-63
2021/05/14 07:44:29;;;;;;;13.75;5.32;;;17.10;52.00;;;;;;5046386;28;20495;-63
2021/05/14 07:46:55;;;;;;;18.40;5.65;;;17.30;51.80;;;;;;5065450;28;20038;-63
2021/05/14 07:49:20;;;;;;;14.18;4.95;;;17.40;51.60;;;;;;5062690;28;20036;-63
2021/05/14 07:51:49;;;;;;;15.13;4.70;;;17.60;51.10;;;;;;5062444;28;20036;-63
2021/05/14 07:54:17;;;;;;;14.75;4.47;;;17.70;50.80;;;;;;5064578;28;20124;-62
2021/05/14 07:56:42;;;;;;;22.40;5.13;;;17.80;50.30;;;;;;5060914;28;20036;-62
2021/05/14 07:59:10;;;;;;;15.40;4.78;;;18.00;50.00;;;;;;5056240;28;20962;-63
2021/05/14 08:01:36;;;;;;;12.48;3.97;;;18.10;49.60;;;;;;5058593;28;20379;-64
2021/05/14 08:04:05;;;;;;;13.68;4.43;;;18.30;49.00;;;;;;5049927;28;20040;-62
2021/05/14 08:06:33;;;;;;;13.48;4.20;;;18.40;48.80;;;;;;5068037;28;20036;-63
2021/05/14 08:09:02;;;;;;;13.60;4.20;;;18.60;48.60;;;;;;5056696;28;20048;-63
2021/05/14 08:11:27;;;;;;;14.65;4.05;;;18.50;47.90;;;;;;5065589;28;20048;-63
2021/05/14 08:13:53;;;;;;;16.58;4.78;;;18.40;48.30;;;;;;5057816;28;20044;-63
2021/05/14 08:16:18;;;;;;;12.95;3.75;;;18.30;48.30;;;;;;5058745;28;20525;-63
2021/05/14 08:18:44;;;;;;;15.65;4.57;;;18.30;48.30;;;;;;5059831;28;20040;-63
2021/05/14 08:21:10;;;;;;;16.60;4.22;;;18.20;48.50;;;;;;5065098;28;20058;-63
2021/05/14 08:23:35;;;;;;;14.75;4.45;;;18.20;48.70;;;;;;5065098;28;20536;-63
2021/05/14 08:26:01;;;;;;;17.45;4.75;;;18.20;48.70;;;;;;5055574;28;20849;-63
2021/05/14 08:28:26;;;;;;;15.93;4.25;;;18.20;48.80;;;;;;5064682;28;20041;-64
2021/05/14 08:30:54;;;;;;;16.05;3.95;;;18.20;48.30;;;;;;5061769;28;20594;-63
2021/05/14 08:33:22;;;;;;;12.63;3.67;;;18.30;48.00;;;;;;5063061;28;20509;-63
2021/05/14 08:35:47;;;;;;;16.75;4.18;;;18.40;48.00;;;;;;5061691;28;20047;-63
2021/05/14 08:38:13;;;;;;;18.55;4.40;;;18.60;47.90;;;;;;5061182;28;20020;-63
2021/05/14 08:40:43;;;;;;;9.57;3.80;;;18.80;47.60;;;;;;5064369;28;20351;-63
2021/05/14 08:43:11;;;;;;;14.85;3.95;;;19.10;47.60;;;;;;5068058;28;20589;-63
2021/05/14 08:45:38;;;;;;;13.48;4.30;;;19.40;47.40;;;;;;5062992;28;20036;-64
2021/05/14 08:48:11;;;;;;;14.07;3.70;;;19.70;46.90;;;;;;5058572;28;20028;-64
2021/05/14 08:50:38;;;;;;;12.05;4.20;;;19.90;46.40;;;;;;5056007;28;20036;-63
2021/05/14 08:53:03;;;;;;;9.75;3.90;;;20.30;45.90;;;;;;5066684;28;20527;-64
2021/05/14 08:55:29;;;;;;;13.23;4.07;;;20.60;45.60;;;;;;5064854;28;20085;-63
2021/05/14 08:57:55;;;;;;;10.80;4.05;;;20.70;44.80;;;;;;5059557;28;20413;-63
2021/05/14 09:00:21;;;;;;;13.23;4.18;;;20.70;44.60;;;;;;5059338;28;20059;-63
2021/05/14 09:02:50;;;;;;;15.15;4.95;;;20.70;44.40;;;;;;5061890;28;20040;-63
2021/05/14 09:05:32;;;;;;;14.57;4.68;;;20.70;43.90;;;;;;5055764;28;20038;-63
2021/05/14 09:07:59;;;;;;;16.60;4.18;;;20.60;44.20;;;;;;5049921;28;20032;-62
2021/05/14 09:10:32;;;;;;;11.00;4.15;;;20.70;44.80;;;;;;5056740;28;20057;-63
2021/05/14 09:13:00;;;;;;;14.45;4.57;;;20.70;44.00;;;;;;5054621;28;20040;-63
2021/05/14 09:15:31;;;;;;;18.02;4.65;;;20.70;43.70;;;;;;5057511;28;20470;-62
2021/05/14 09:18:12;;;;;;;14.60;4.25;;;20.70;43.50;;;;;;5056441;28;20044;-64
2021/05/14 09:20:42;;;;;;;13.82;3.90;;;20.50;43.50;;;;;;5056305;28;20040;-63
2021/05/14 09:23:20;;;;;;;16.67;5.10;;;20.40;43.50;;;;;;5048646;28;20509;-64
2021/05/14 09:25:52;;;;;;;14.00;4.85;;;20.30;43.70;;;;;;5051406;28;20036;-63
2021/05/14 09:28:22;;;;;;;17.08;4.63;;;20.20;43.90;;;;;;5064876;28;20028;-64
2021/05/14 09:31:14;;;;;;;11.38;4.22;;;20.20;44.20;;;;;;5062419;28;20054;-63
2021/05/14 09:33:43;;;;;;;10.95;3.60;;;20.20;44.40;;;;;;5068728;28;20032;-63
2021/05/14 09:36:13;;;;;;;14.27;3.83;;;20.30;44.40;;;;;;5061513;28;20449;-63
2021/05/14 09:38:54;;;;;;;14.30;4.30;;;20.40;44.10;;;;;;5063161;28;20060;-63
2021/05/14 09:41:34;;;;;;;11.48;4.05;;;20.40;43.90;;;;;;5066259;28;20032;-63
2021/05/14 09:44:04;;;;;;;12.48;3.70;;;20.50;44.20;;;;;;5063598;28;20051;-62
2021/05/14 09:46:30;;;;;;;11.63;4.32;;;20.70;43.60;;;;;;5058901;28;20121;-63
2021/05/14 09:49:03;;;;;;;11.85;4.18;;;20.80;43.50;;;;;;5056235;28;20131;-63
2021/05/14 09:51:29;;;;;;;7.35;3.42;;;20.90;43.30;;;;;;5050470;28;20181;-63
2021/05/14 09:54:25;;;;;;;11.30;3.55;;;21.00;43.50;;;;;;5057883;28;20039;-64
2021/05/14 09:59:48;;;;;;;9.60;3.60;;;21.00;42.80;;;;;;5059467;28;20039;-63
2021/05/14 10:02:21;;;;;;;15.30;4.03;;;21.00;43.10;;;;;;5063382;28;20477;-63
2021/05/14 10:04:47;;;;;;;14.32;4.05;;;21.00;42.80;;;;;;5065382;28;20044;-63
2021/05/14 10:07:16;;;;;;;9.63;3.65;;;21.00;43.40;;;;;;5066290;28;20120;-64
2021/05/14 10:09:42;;;;;;;11.90;3.88;;;21.00;42.60;;;;;;5062003;28;20038;-63
2021/05/14 10:12:12;;;;;;;16.85;4.00;;;21.00;42.70;;;;;;5065876;28;20047;-62
2021/05/14 10:14:40;;;;;;;16.48;4.82;;;20.90;42.50;;;;;;5064603;28;20128;-63
2021/05/14 10:17:06;;;;;;;10.32;3.80;;;20.80;42.60;;;;;;5067519;28;20039;-64
2021/05/14 10:19:37;;;;;;;13.32;4.15;;;20.70;43.00;;;;;;5055617;28;20051;-63
2021/05/14 10:22:04;;;;;;;12.73;4.30;;;20.70;42.80;;;;;;5060871;28;20047;-64
2021/05/14 10:24:43;;;;;;;10.65;4.13;;;20.60;43.10;;;;;;5063041;28;20036;-63
2021/05/14 10:27:21;;;;;;;11.20;4.38;;;20.60;43.40;;;;;;5065317;28;20093;-63
2021/05/14 10:29:52;;;;;;;10.90;4.13;;;20.70;43.60;;;;;;5063838;28;20135;-63
2021/05/14 10:32:38;;;;;;;15.57;4.43;;;20.90;43.90;;;;;;5063547;28;20047;-63
2021/05/14 10:35:07;;;;;;;10.15;3.90;;;21.10;43.30;;;;;;5069079;28;20063;-63
2021/05/14 10:37:50;;;;;;;14.15;4.05;;;21.40;42.80;;;;;;5064175;28;20032;-64
2021/05/14 10:40:32;;;;;;;10.88;4.32;;;21.50;42.30;;;;;;5063654;28;20078;-64
2021/05/14 10:43:02;;;;;;;15.35;4.57;;;21.60;41.60;;;;;;5048552;28;20089;-63
2021/05/14 10:46:04;;;;;;;15.50;5.00;;;21.70;41.20;;;;;;5061840;28;20040;-62
2021/05/14 10:48:59;;;;;;;8.63;3.75;;;21.60;41.80;;;;;;4963101;28;20045;-64
2021/05/14 10:51:50;;;;;;;12.10;3.95;;;21.60;42.30;;;;;;5064527;28;20036;-63
2021/05/14 10:54:41;;;;;;;17.15;4.70;;;21.60;42.40;;;;;;5065516;28;20089;-63
2021/05/14 10:57:13;;;;;;;13.80;4.38;;;21.70;41.90;;;;;;5064499;28;20501;-64
2021/05/14 10:59:42;;;;;;;11.27;3.97;;;21.70;41.90;;;;;;5044144;28;20033;-65
2021/05/14 11:02:30;;;;;;;14.68;4.15;;;21.60;41.50;;;;;;5040987;28;20031;-64
2021/05/14 11:04:57;;;;;;;11.00;3.80;;;21.60;41.60;;;;;;5043078;28;20036;-63
2021/05/14 11:07:40;;;;;;;8.77;3.70;;;21.70;42.10;;;;;;5041321;28;20148;-64
2021/05/14 11:10:15;;;;;;;10.50;4.05;;;21.70;42.00;;;;;;5054152;28;20040;-64
2021/05/14 11:12:46;;;;;;;10.98;4.20;;;21.90;41.90;;;;;;5063863;28;20088;-63
2021/05/14 11:15:21;;;;;;;13.23;4.53;;;22.20;41.50;;;;;;5066770;28;20070;-63
2021/05/14 11:18:05;;;;;;;12.88;4.40;;;22.40;40.40;;;;;;5064002;28;20033;-64
2021/05/14 11:20:48;;;;;;;11.38;4.60;;;22.50;40.70;;;;;;5060889;28;20588;-63
2021/05/14 11:23:38;;;;;;;15.95;4.75;;;22.60;40.60;;;;;;5063453;28;20145;-62
2021/05/14 11:26:08;;;;;;;9.30;4.22;;;22.80;40.20;;;;;;5067146;28;20032;-63
2021/05/14 11:28:43;;;;;;;8.27;3.97;;;22.90;39.90;;;;;;5056129;28;20042;-63
2021/05/14 11:31:19;;;;;;;12.60;3.78;;;23.00;41.10;;;;;;5066687;28;20043;-64
2021/05/14 11:33:52;;;;;;;11.25;3.83;;;23.10;39.60;;;;;;5064152;28;20643;-64
2021/05/14 11:36:20;;;;;;;10.80;3.97;;;23.20;40.30;;;;;;5063396;28;20512;-63
2021/05/14 11:38:51;;;;;;;10.55;4.55;;;23.30;39.50;;;;;;5063666;28;20031;-64
2021/05/14 11:41:31;;;;;;;10.02;4.20;;;23.30;38.80;;;;;;5060753;28;20076;-63
2021/05/14 11:44:00;;;;;;;12.77;3.95;;;23.10;39.20;;;;;;5068519;28;20048;-63
2021/05/14 11:46:31;;;;;;;9.88;4.53;;;23.00;39.40;;;;;;5061112;28;20044;-63
2021/05/14 11:49:03;;;;;;;10.23;4.00;;;23.00;39.60;;;;;;5055175;28;20039;-63
2021/05/14 11:51:31;;;;;;;10.90;5.03;;;23.00;39.10;;;;;;5063904;28;20043;-63
2021/05/14 11:54:11;;;;;;;9.98;4.53;;;22.90;38.80;;;;;;5055300;28;20799;-63
2021/05/14 11:56:39;;;;;;;23.23;5.90;;;22.90;38.90;;;;;;5040246;28;20071;-63
2021/05/14 11:59:05;;;;;;;10.60;4.95;;;22.90;39.10;;;;;;5061569;28;20032;-64
2021/05/14 12:01:40;;;;;;;10.90;4.43;;;23.00;38.90;;;;;;5057270;28;20074;-62
2021/05/14 12:04:06;;;;;;;12.25;4.57;;;23.10;39.40;;;;;;5068402;28;20062;-64
2021/05/14 12:06:32;;;;;;;9.77;4.22;;;23.20;38.70;;;;;;5060040;28;20074;-63
2021/05/14 12:08:58;;;;;;;20.13;4.80;;;23.20;39.00;;;;;;5064065;28;20201;-63
2021/05/14 12:11:23;;;;;;;12.65;4.88;;;23.20;39.00;;;;;;5065397;28;20090;-64
2021/05/14 12:13:51;;;;;;;8.88;3.92;;;23.10;38.80;;;;;;5066232;28;20036;-63
2021/05/14 12:16:18;;;;;;;9.95;4.15;;;23.20;38.80;;;;;;5067644;28;20036;-63
2021/05/14 12:18:46;;;;;;;11.90;4.07;;;23.20;39.10;;;;;;5069523;28;20036;-63
2021/05/14 12:21:29;;;;;;;12.05;4.47;;;23.30;38.90;;;;;;5048029;28;20721;-63
2021/05/14 12:23:56;;;;;;;13.43;4.18;;;23.20;38.60;;;;;;5067316;28;20167;-64
2021/05/14 12:26:22;;;;;;;11.57;4.47;;;23.20;39.20;;;;;;5052527;28;20073;-63
2021/05/14 12:28:49;;;;;;;10.52;4.70;;;23.30;39.00;;;;;;5050747;28;20521;-62
2021/05/14 12:31:26;;;;;;;12.73;4.72;;;23.30;39.10;;;;;;5062166;28;20065;-62
2021/05/14 12:33:59;;;;;;;19.70;4.25;;;23.40;39.30;;;;;;5050302;28;20047;-63
2021/05/14 12:36:37;;;;;;;9.00;4.10;;;23.40;39.30;;;;;;5037694;28;20115;-63
2021/05/14 12:39:11;;;;;;;34.47;8.75;;;23.40;39.00;;;;;;5061058;28;20047;-63
2021/05/14 12:41:52;;;;;;;12.18;4.45;;;23.40;39.00;;;;;;5062374;27;20036;-63
2021/05/14 12:44:25;;;;;;;14.00;5.20;;;23.30;39.20;;;;;;5049062;28;20676;-63
2021/05/14 12:47:24;;;;;;;10.57;4.70;;;23.30;40.00;;;;;;5060689;28;20043;-62
2021/05/14 12:49:53;;;;;;;11.02;5.07;;;23.20;40.40;;;;;;5002319;28;20040;-63